createdAt,value
2019-04-06T00:00:49.381Z,983.94
2019-04-06T00:01:49.414Z,983.91
2019-04-06T00:02:49.453Z,983.89
2019-04-06T00:03:51.966Z,983.92
2019-04-06T00:04:49.530Z,983.91
2019-04-06T00:05:49.569Z,983.92
2019-04-06T00:06:49.608Z,983.95
2019-04-06T00:07:49.668Z,983.92
2019-04-06T00:08:49.685Z,983.92
2019-04-06T00:09:49.723Z,983.98
2019-04-06T00:10:49.766Z,983.98
2019-04-06T00:11:49.798Z,983.99
2019-04-06T00:12:49.843Z,983.99
2019-04-06T00:13:49.927Z,983.97
2019-04-06T00:14:49.925Z,983.96
2019-04-06T00:15:49.952Z,983.94
2019-04-06T00:16:49.994Z,983.97
2019-04-06T00:17:50.030Z,983.96
2019-04-06T00:18:50.066Z,983.95
2019-04-06T00:19:50.113Z,983.96
2019-04-06T00:20:50.159Z,983.93
2019-04-06T00:21:50.187Z,983.97
2019-04-06T00:22:50.222Z,983.93
2019-04-06T00:23:50.267Z,983.94
2019-04-06T00:24:50.298Z,983.92
2019-04-06T00:25:50.362Z,983.90
2019-04-06T00:26:50.374Z,983.91
2019-04-06T00:27:50.413Z,983.96
2019-04-06T00:28:50.452Z,983.94
2019-04-06T00:29:50.492Z,983.95
2019-04-06T00:30:50.529Z,983.94
2019-04-06T00:31:50.568Z,983.91
2019-04-06T00:32:50.615Z,983.92
2019-04-06T00:33:50.644Z,983.94
2019-04-06T00:34:50.682Z,983.94
2019-04-06T00:35:50.722Z,983.93
2019-04-06T00:36:50.758Z,983.97
2019-04-06T00:37:50.812Z,983.93
2019-04-06T00:38:50.840Z,983.95
2019-04-06T00:39:50.978Z,983.97
2019-04-06T00:40:50.920Z,983.94
2019-04-06T00:41:50.958Z,983.96
2019-04-06T00:42:50.988Z,983.92
2019-04-06T00:43:51.028Z,983.97
2019-04-06T00:44:51.066Z,983.91
2019-04-06T00:45:51.106Z,983.94
2019-04-06T00:46:51.150Z,983.99
2019-04-06T00:47:51.186Z,984.01
2019-04-06T00:48:51.218Z,984.03
2019-04-06T00:49:51.256Z,984.03
2019-04-06T00:50:51.293Z,984.02
2019-04-06T00:51:51.335Z,984.06
2019-04-06T00:52:51.371Z,984.03
2019-04-06T00:53:51.412Z,984.02
2019-04-06T00:54:51.449Z,983.98
2019-04-06T00:55:55.986Z,983.98
2019-04-06T00:56:51.523Z,984.01
2019-04-06T00:57:51.561Z,983.99
2019-04-06T00:58:51.608Z,984.03
2019-04-06T00:59:51.636Z,983.97
2019-04-06T01:00:51.676Z,983.94
2019-04-06T01:01:51.719Z,983.92
2019-04-06T01:02:51.751Z,983.95
2019-04-06T01:03:51.807Z,983.96
2019-04-06T01:04:51.865Z,983.91
2019-04-06T01:05:51.870Z,983.90
2019-04-06T01:06:51.978Z,983.96
2019-04-06T01:07:51.949Z,983.93
2019-04-06T01:08:51.986Z,983.93
2019-04-06T01:09:52.032Z,983.89
2019-04-06T01:10:52.055Z,983.89
2019-04-06T01:11:52.145Z,983.91
2019-04-06T01:12:52.186Z,983.87
2019-04-06T01:13:52.171Z,983.90
2019-04-06T01:14:52.208Z,983.93
2019-04-06T01:15:52.263Z,983.96
2019-04-06T01:16:52.283Z,983.98
2019-04-06T01:17:52.327Z,983.95
2019-04-06T01:18:52.363Z,983.93
2019-04-06T01:19:52.416Z,983.98
2019-04-06T01:20:52.441Z,983.95
2019-04-06T01:21:52.472Z,983.94
2019-04-06T01:22:52.530Z,983.91
2019-04-06T01:23:52.549Z,983.90
2019-04-06T01:24:52.595Z,983.96
2019-04-06T01:25:52.624Z,983.89
2019-04-06T01:26:52.660Z,983.96
2019-04-06T01:27:52.707Z,983.94
2019-04-06T01:28:52.741Z,983.97
2019-04-06T01:29:52.784Z,984.01
2019-04-06T01:30:52.814Z,983.98
2019-04-06T01:31:52.857Z,984.01
2019-04-06T01:32:52.889Z,983.96
2019-04-06T01:33:52.933Z,983.95
2019-04-06T01:34:52.966Z,983.95
2019-04-06T01:35:53.004Z,983.97
2019-04-06T01:36:53.089Z,983.99
2019-04-06T01:37:53.080Z,984.02
2019-04-06T01:38:53.123Z,984.03
2019-04-06T01:39:53.159Z,984.00
2019-04-06T01:40:53.191Z,984.01
2019-04-06T01:41:53.230Z,983.94
2019-04-06T01:42:53.271Z,983.94
2019-04-06T01:43:53.308Z,983.99
2019-04-06T01:44:53.344Z,983.96
2019-04-06T01:45:53.384Z,983.98
2019-04-06T01:46:53.421Z,983.94
2019-04-06T01:47:53.461Z,983.95
2019-04-06T01:48:53.507Z,983.97
2019-04-06T01:49:53.536Z,983.98
2019-04-06T01:50:53.573Z,983.91
2019-04-06T01:51:53.619Z,983.92
2019-04-06T01:52:53.655Z,983.91
2019-04-06T01:53:53.695Z,983.96
2019-04-06T01:54:53.724Z,983.93
2019-04-06T01:55:53.759Z,983.96
2019-04-06T01:56:53.801Z,983.99
2019-04-06T01:57:53.838Z,983.96
2019-04-06T01:58:53.937Z,983.91
2019-04-06T01:59:53.921Z,983.95
2019-04-06T02:00:53.950Z,984.00
2019-04-06T02:01:53.989Z,983.98
2019-04-06T02:02:54.037Z,983.97
2019-04-06T02:03:54.071Z,983.97
2019-04-06T02:04:54.107Z,983.96
2019-04-06T02:05:54.143Z,983.95
2019-04-06T02:06:54.177Z,983.95
2019-04-06T02:07:54.219Z,983.95
2019-04-06T02:08:54.255Z,983.99
2019-04-06T02:09:54.302Z,983.97
2019-04-06T02:10:54.332Z,984.00
2019-04-06T02:11:54.368Z,983.99
2019-04-06T02:12:54.412Z,983.99
2019-04-06T02:13:54.446Z,983.95
2019-04-06T02:14:54.483Z,983.95
2019-04-06T02:15:54.603Z,983.92
2019-04-06T02:16:54.564Z,983.94
2019-04-06T02:17:54.598Z,983.95
2019-04-06T02:18:54.640Z,983.94
2019-04-06T02:19:54.679Z,983.93
2019-04-06T02:20:54.713Z,983.91
2019-04-06T02:21:54.760Z,983.93
2019-04-06T02:22:54.796Z,983.91
2019-04-06T02:23:54.832Z,983.92
2019-04-06T02:24:54.868Z,983.93
2019-04-06T02:25:54.904Z,983.92
2019-04-06T02:26:54.941Z,983.91
2019-04-06T02:27:54.980Z,983.89
2019-04-06T02:28:55.019Z,983.93
2019-04-06T02:29:55.059Z,983.95
2019-04-06T02:30:55.094Z,983.92
2019-04-06T02:31:55.328Z,983.90
2019-04-06T02:32:55.172Z,983.92
2019-04-06T02:33:55.211Z,983.94
2019-04-06T02:34:55.250Z,983.92
2019-04-06T02:35:55.402Z,983.92
2019-04-06T02:36:55.333Z,983.95
2019-04-06T02:37:55.364Z,983.93
2019-04-06T02:38:55.454Z,983.96
2019-04-06T02:39:55.442Z,983.99
2019-04-06T02:40:55.551Z,983.96
2019-04-06T02:41:55.516Z,983.99
2019-04-06T02:42:55.678Z,983.97
2019-04-06T02:43:55.601Z,983.97
2019-04-06T02:44:55.632Z,983.95
2019-04-06T02:45:55.679Z,983.95
2019-04-06T02:46:55.710Z,983.97
2019-04-06T02:47:55.750Z,983.98
2019-04-06T02:48:55.787Z,983.92
2019-04-06T02:49:55.824Z,983.91
2019-04-06T02:50:55.859Z,984.01
2019-04-06T02:51:55.954Z,983.98
2019-04-06T02:52:55.941Z,983.98
2019-04-06T02:53:55.983Z,983.99
2019-04-06T02:54:56.095Z,984.01
2019-04-06T02:55:56.053Z,983.99
2019-04-06T02:56:56.104Z,983.98
2019-04-06T02:57:56.276Z,984.01
2019-04-06T02:58:56.172Z,983.98
2019-04-06T02:59:56.206Z,984.01
2019-04-06T03:00:56.427Z,984.02
2019-04-06T03:01:56.285Z,983.99
2019-04-06T03:02:56.322Z,984.00
2019-04-06T03:03:56.513Z,984.02
2019-04-06T03:04:56.478Z,983.99
2019-04-06T03:05:56.450Z,984.03
2019-04-06T03:06:56.643Z,984.01
2019-04-06T03:07:56.516Z,984.01
2019-04-06T03:08:56.553Z,984.04
2019-04-06T03:09:56.591Z,984.05
2019-04-06T03:10:56.664Z,984.04
2019-04-06T03:11:56.665Z,984.05
2019-04-06T03:12:56.899Z,984.04
2019-04-06T03:13:56.834Z,983.99
2019-04-06T03:14:56.806Z,984.06
2019-04-06T03:15:56.820Z,984.06
2019-04-06T03:16:56.993Z,984.01
2019-04-06T03:17:56.898Z,984.04
2019-04-06T03:18:56.936Z,984.06
2019-04-06T03:19:57.002Z,984.09
2019-04-06T03:20:57.013Z,984.05
2019-04-06T03:21:57.051Z,984.04
2019-04-06T03:22:57.092Z,984.08
2019-04-06T03:23:57.132Z,984.08
2019-04-06T03:24:57.168Z,984.07
2019-04-06T03:25:57.206Z,984.13
2019-04-06T03:27:01.994Z,984.10
2019-04-06T03:27:57.367Z,984.09
2019-04-06T03:28:57.323Z,984.10
2019-04-06T03:29:59.179Z,984.10
2019-04-06T03:30:57.630Z,984.11
2019-04-06T03:31:57.438Z,984.08
2019-04-06T03:32:57.768Z,984.14
2019-04-06T03:33:57.778Z,984.14
2019-04-06T03:34:57.798Z,984.14
2019-04-06T03:35:57.818Z,984.16
2019-04-06T03:36:57.632Z,984.19
2019-04-06T03:37:57.671Z,984.22
2019-04-06T03:38:57.710Z,984.24
2019-04-06T03:39:57.882Z,984.23
2019-04-06T03:40:57.786Z,984.20
2019-04-06T03:41:57.824Z,984.18
2019-04-06T03:42:57.888Z,984.17
2019-04-06T03:43:57.899Z,984.18
2019-04-06T03:44:57.956Z,984.16
2019-04-06T03:45:58.150Z,984.11
2019-04-06T03:46:58.023Z,984.15
2019-04-06T03:47:58.267Z,984.16
2019-04-06T03:48:58.095Z,984.16
2019-04-06T03:49:58.135Z,984.13
2019-04-06T03:50:58.180Z,984.17
2019-04-06T03:51:58.213Z,984.14
2019-04-06T03:52:58.289Z,984.12
2019-04-06T03:53:58.290Z,984.15
2019-04-06T03:54:58.396Z,984.14
2019-04-06T03:55:58.380Z,984.16
2019-04-06T03:56:58.430Z,984.14
2019-04-06T03:57:58.445Z,984.19
2019-04-06T03:58:58.683Z,984.23
2019-04-06T03:59:58.523Z,984.20
2019-04-06T04:00:58.574Z,984.17
2019-04-06T04:01:58.605Z,984.18
2019-04-06T04:02:58.639Z,984.21
2019-04-06T04:03:58.695Z,984.23
2019-04-06T04:04:58.749Z,984.20
2019-04-06T04:05:58.760Z,984.15
2019-04-06T04:06:58.797Z,984.16
2019-04-06T04:07:58.847Z,984.19
2019-04-06T04:08:58.882Z,984.18
2019-04-06T04:09:58.917Z,984.14
2019-04-06T04:10:58.952Z,984.15
2019-04-06T04:11:59.121Z,984.16
2019-04-06T04:12:59.032Z,984.14
2019-04-06T04:13:59.071Z,984.16
2019-04-06T04:14:59.107Z,984.15
2019-04-06T04:15:59.159Z,984.18
2019-04-06T04:16:59.188Z,984.16
2019-04-06T04:17:59.247Z,984.14
2019-04-06T04:18:59.268Z,984.15
2019-04-06T04:19:59.357Z,984.14
2019-04-06T04:20:59.532Z,984.19
2019-04-06T04:21:59.384Z,984.19
2019-04-06T04:22:59.702Z,984.20
2019-04-06T04:23:59.459Z,984.19
2019-04-06T04:24:59.508Z,984.21
2019-04-06T04:25:59.546Z,984.19
2019-04-06T04:26:59.686Z,984.20
2019-04-06T04:27:59.627Z,984.23
2019-04-06T04:28:59.653Z,984.17
2019-04-06T04:29:59.693Z,984.21
2019-04-06T04:30:59.776Z,984.18
2019-04-06T04:31:59.772Z,984.22
2019-04-06T04:32:59.895Z,984.22
2019-04-06T04:34:00.202Z,984.24
2019-04-06T04:34:59.896Z,984.21
2019-04-06T04:36:00.030Z,984.25
2019-04-06T04:36:59.968Z,984.27
2019-04-06T04:38:00.015Z,984.26
2019-04-06T04:39:00.049Z,984.27
2019-04-06T04:40:00.098Z,984.25
2019-04-06T04:41:00.191Z,984.28
2019-04-06T04:42:00.340Z,984.26
2019-04-06T04:43:00.201Z,984.30
2019-04-06T04:44:00.245Z,984.28
2019-04-06T04:45:00.286Z,984.31
2019-04-06T04:46:00.318Z,984.33
2019-04-06T04:47:00.358Z,984.32
2019-04-06T04:48:00.525Z,984.33
2019-04-06T04:49:00.637Z,984.34
2019-04-06T04:50:00.476Z,984.31
2019-04-06T04:51:00.521Z,984.33
2019-04-06T04:52:00.556Z,984.37
2019-04-06T04:53:00.628Z,984.35
2019-04-06T04:54:00.636Z,984.40
2019-04-06T04:55:00.831Z,984.40
2019-04-06T04:56:00.710Z,984.41
2019-04-06T04:57:00.757Z,984.41
2019-04-06T04:58:00.792Z,984.43
2019-04-06T04:59:00.839Z,984.40
2019-04-06T05:00:00.869Z,984.46
2019-04-06T05:01:00.905Z,984.45
2019-04-06T05:02:00.945Z,984.46
2019-04-06T05:03:01.257Z,984.46
2019-04-06T05:04:01.033Z,984.47
2019-04-06T05:05:01.068Z,984.44
2019-04-06T05:06:01.277Z,984.47
2019-04-06T05:07:01.190Z,984.50
2019-04-06T05:08:01.179Z,984.49
2019-04-06T05:09:01.220Z,984.49
2019-04-06T05:10:01.347Z,984.53
2019-04-06T05:11:01.295Z,984.53
2019-04-06T05:12:01.486Z,984.55
2019-04-06T05:13:01.387Z,984.57
2019-04-06T05:14:01.422Z,984.58
2019-04-06T05:15:01.475Z,984.61
2019-04-06T05:16:01.495Z,984.63
2019-04-06T05:17:01.537Z,984.61
2019-04-06T05:18:01.588Z,984.65
2019-04-06T05:19:01.611Z,984.70
2019-04-06T05:20:01.673Z,984.67
2019-04-06T05:21:01.692Z,984.67
2019-04-06T05:22:01.833Z,984.69
2019-04-06T05:23:01.768Z,984.70
2019-04-06T05:24:01.810Z,984.73
2019-04-06T05:25:02.357Z,984.69
2019-04-06T05:26:02.066Z,984.69
2019-04-06T05:27:01.928Z,984.72
2019-04-06T05:28:01.973Z,984.71
2019-04-06T05:29:02.104Z,984.72
2019-04-06T05:30:02.045Z,984.73
2019-04-06T05:31:02.089Z,984.69
2019-04-06T05:32:02.125Z,984.69
2019-04-06T05:33:02.169Z,984.72
2019-04-06T05:34:02.203Z,984.76
2019-04-06T05:35:02.242Z,984.76
2019-04-06T05:36:02.280Z,984.80
2019-04-06T05:37:02.326Z,984.75
2019-04-06T05:38:02.360Z,984.77
2019-04-06T05:39:02.400Z,984.74
2019-04-06T05:40:02.442Z,984.77
2019-04-06T05:41:02.482Z,984.79
2019-04-06T05:42:02.739Z,984.80
2019-04-06T05:43:02.557Z,984.83
2019-04-06T05:44:02.608Z,984.79
2019-04-06T05:45:02.921Z,984.76
2019-04-06T05:46:02.676Z,984.81
2019-04-06T05:47:02.730Z,984.77
2019-04-06T05:48:02.756Z,984.83
2019-04-06T05:49:02.997Z,984.77
2019-04-06T05:50:02.833Z,984.81
2019-04-06T05:51:02.884Z,984.80
2019-04-06T05:52:02.920Z,984.77
2019-04-06T05:53:02.969Z,984.77
2019-04-06T05:54:03.032Z,984.76
2019-04-06T05:55:03.032Z,984.76
2019-04-06T05:56:03.074Z,984.73
2019-04-06T05:57:03.126Z,984.78
2019-04-06T05:58:04.698Z,984.79
2019-04-06T05:59:03.197Z,984.79
2019-04-06T06:00:03.466Z,984.80
2019-04-06T06:01:04.076Z,984.85
2019-04-06T06:02:03.318Z,984.84
2019-04-06T06:03:03.349Z,984.86
2019-04-06T06:04:03.398Z,984.87
2019-04-06T06:05:03.578Z,984.86
2019-04-06T06:06:03.478Z,984.87
2019-04-06T06:07:03.636Z,984.86
2019-04-06T06:08:03.558Z,984.88
2019-04-06T06:09:03.589Z,984.91
2019-04-06T06:10:03.675Z,984.90
2019-04-06T06:11:03.688Z,984.91
2019-04-06T06:12:03.707Z,984.93
2019-04-06T06:13:03.747Z,984.96
2019-04-06T06:14:03.787Z,984.99
2019-04-06T06:15:04.002Z,984.97
2019-04-06T06:16:04.000Z,984.98
2019-04-06T06:17:03.906Z,984.98
2019-04-06T06:18:04.043Z,984.99
2019-04-06T06:19:04.088Z,984.96
2019-04-06T06:20:04.029Z,985.02
2019-04-06T06:21:04.072Z,985.05
2019-04-06T06:22:04.107Z,985.00
2019-04-06T06:23:04.150Z,984.97
2019-04-06T06:24:04.240Z,985.01
2019-04-06T06:25:04.233Z,985.01
2019-04-06T06:26:04.303Z,985.00
2019-04-06T06:27:04.313Z,985.00
2019-04-06T06:28:13.839Z,985.03
2019-04-06T06:29:04.655Z,985.05
2019-04-06T06:30:04.438Z,985.07
2019-04-06T06:31:04.465Z,985.08
2019-04-06T06:32:04.638Z,985.05
2019-04-06T06:33:04.578Z,985.13
2019-04-06T06:34:04.595Z,985.07
2019-04-06T06:35:04.627Z,985.12
2019-04-06T06:36:04.673Z,985.04
2019-04-06T06:37:04.878Z,985.07
2019-04-06T06:38:04.889Z,985.08
2019-04-06T06:39:05.006Z,985.07
2019-04-06T06:40:04.835Z,985.08
2019-04-06T06:41:04.877Z,985.07
2019-04-06T06:42:05.069Z,985.05
2019-04-06T06:43:04.948Z,985.08
2019-04-06T06:44:04.990Z,985.07
2019-04-06T06:45:05.028Z,985.06
2019-04-06T06:46:05.067Z,985.09
2019-04-06T06:47:05.116Z,985.09
2019-04-06T06:48:05.284Z,985.12
2019-04-06T06:49:05.188Z,985.14
2019-04-06T06:50:05.230Z,985.17
2019-04-06T06:51:05.469Z,985.24
2019-04-06T06:52:05.312Z,985.24
2019-04-06T06:53:05.350Z,985.26
2019-04-06T06:54:07.391Z,985.24
2019-04-06T06:55:05.429Z,985.22
2019-04-06T06:56:05.480Z,985.18
2019-04-06T06:57:05.542Z,985.20
2019-04-06T06:58:05.574Z,985.26
2019-04-06T06:59:05.827Z,985.25
2019-04-06T07:00:05.637Z,985.24
2019-04-06T07:01:05.671Z,985.27
2019-04-06T07:02:05.893Z,985.29
2019-04-06T07:03:05.754Z,985.31
2019-04-06T07:04:05.794Z,985.32
2019-04-06T07:05:05.835Z,985.33
2019-04-06T07:06:05.876Z,985.38
2019-04-06T07:07:06.295Z,985.41
2019-04-06T07:08:06.077Z,985.40
2019-04-06T07:09:06.122Z,985.30
2019-04-06T07:10:06.488Z,985.25
2019-04-06T07:11:06.085Z,985.23
2019-04-06T07:12:06.119Z,985.28
2019-04-06T07:13:06.290Z,985.27
2019-04-06T07:14:06.217Z,985.27
2019-04-06T07:15:06.243Z,985.26
2019-04-06T07:16:06.471Z,985.27
2019-04-06T07:17:06.324Z,985.35
2019-04-06T07:18:06.567Z,985.33
2019-04-06T07:19:06.419Z,985.34
2019-04-06T07:20:06.448Z,985.36
2019-04-06T07:21:06.491Z,985.35
2019-04-06T07:22:06.611Z,985.34
2019-04-06T07:23:06.575Z,985.39
2019-04-06T07:24:06.612Z,985.38
2019-04-06T07:25:06.655Z,985.41
2019-04-06T07:26:06.876Z,985.38
2019-04-06T07:27:06.748Z,985.39
2019-04-06T07:28:06.777Z,985.42
2019-04-06T07:29:06.914Z,985.44
2019-04-06T07:30:06.860Z,985.46
2019-04-06T07:31:06.901Z,985.49
2019-04-06T07:32:06.940Z,985.48
2019-04-06T07:33:06.984Z,985.47
2019-04-06T07:34:07.031Z,985.47
2019-04-06T07:35:07.066Z,985.48
2019-04-06T07:36:07.107Z,985.48
2019-04-06T07:37:07.155Z,985.50
2019-04-06T07:38:07.394Z,985.48
2019-04-06T07:39:07.236Z,985.49
2019-04-06T07:40:07.291Z,985.53
2019-04-06T07:41:07.555Z,985.47
2019-04-06T07:42:07.372Z,985.47
2019-04-06T07:43:07.546Z,985.42
2019-04-06T07:44:07.442Z,985.43
2019-04-06T07:45:07.873Z,985.41
2019-04-06T07:46:07.525Z,985.37
2019-04-06T07:47:07.575Z,985.36
2019-04-06T07:48:07.641Z,985.37
2019-04-06T07:49:09.881Z,985.37
2019-04-06T07:50:07.747Z,985.36
2019-04-06T07:51:07.738Z,985.36
2019-04-06T07:52:07.928Z,985.32
2019-04-06T07:53:07.825Z,985.29
2019-04-06T07:54:07.862Z,985.30
2019-04-06T07:55:08.069Z,985.27
2019-04-06T07:56:08.148Z,985.26
2019-04-06T07:57:07.988Z,985.24
2019-04-06T07:58:08.058Z,985.24
2019-04-06T07:59:08.081Z,985.21
2019-04-06T08:00:08.116Z,985.21
2019-04-06T08:01:08.256Z,985.22
2019-04-06T08:02:08.203Z,985.18
2019-04-06T08:03:08.362Z,985.25
2019-04-06T08:04:08.287Z,985.21
2019-04-06T08:05:08.334Z,985.21
2019-04-06T08:06:08.374Z,985.20
2019-04-06T08:07:08.416Z,985.22
2019-04-06T08:08:08.457Z,985.21
2019-04-06T08:09:08.498Z,985.24
2019-04-06T08:10:08.708Z,985.25
2019-04-06T08:11:08.581Z,985.27
2019-04-06T08:12:08.772Z,985.22
2019-04-06T08:13:08.665Z,985.24
2019-04-06T08:14:08.708Z,985.25
2019-04-06T08:15:08.763Z,985.28
2019-04-06T08:16:08.791Z,985.24
2019-04-06T08:17:08.832Z,985.24
2019-04-06T08:18:08.880Z,985.25
2019-04-06T08:19:08.924Z,985.27
2019-04-06T08:20:08.976Z,985.25
2019-04-06T08:21:09.001Z,985.28
2019-04-06T08:22:09.042Z,985.27
2019-04-06T08:23:09.085Z,985.27
2019-04-06T08:24:09.128Z,985.23
2019-04-06T08:25:09.171Z,985.24
2019-04-06T08:26:09.439Z,985.19
2019-04-06T08:27:09.258Z,985.19
2019-04-06T08:28:09.331Z,985.16
2019-04-06T08:29:09.418Z,985.16
2019-04-06T08:30:09.380Z,985.18
2019-04-06T08:31:09.620Z,985.14
2019-04-06T08:32:09.561Z,985.14
2019-04-06T08:33:09.504Z,985.14
2019-04-06T08:34:09.553Z,985.11
2019-04-06T08:35:09.589Z,985.09
2019-04-06T08:36:09.630Z,985.13
2019-04-06T08:37:09.672Z,985.08
2019-04-06T08:38:09.718Z,985.09
2019-04-06T08:39:09.857Z,985.12
2019-04-06T08:40:09.989Z,985.06
2019-04-06T08:41:09.881Z,985.08
2019-04-06T08:42:09.881Z,985.10
2019-04-06T08:43:09.928Z,985.07
2019-04-06T08:44:09.969Z,985.08
2019-04-06T08:45:10.012Z,985.03
2019-04-06T08:46:10.149Z,985.00
2019-04-06T08:47:10.098Z,985.01
2019-04-06T08:48:10.144Z,985.02
2019-04-06T08:49:10.174Z,985.02
2019-04-06T08:50:10.227Z,985.00
2019-04-06T08:51:10.304Z,985.04
2019-04-06T08:52:11.648Z,985.04
2019-04-06T08:53:10.340Z,985.06
2019-04-06T08:54:10.383Z,985.05
2019-04-06T08:55:10.515Z,985.03
2019-04-06T08:56:10.461Z,985.03
2019-04-06T08:57:10.503Z,985.05
2019-04-06T08:58:10.548Z,985.04
2019-04-06T08:59:13.161Z,985.08
2019-04-06T09:00:10.627Z,985.08
2019-04-06T09:01:10.672Z,985.02
2019-04-06T09:02:10.717Z,985.04
2019-04-06T09:03:10.763Z,985.03
2019-04-06T09:04:10.796Z,985.02
2019-04-06T09:05:10.839Z,985.02
2019-04-06T09:06:10.882Z,985.05
2019-04-06T09:07:10.921Z,984.97
2019-04-06T09:08:11.213Z,985.04
2019-04-06T09:09:11.015Z,985.02
2019-04-06T09:10:11.058Z,985.03
2019-04-06T09:11:11.093Z,985.06
2019-04-06T09:12:11.233Z,985.07
2019-04-06T09:13:11.173Z,985.06
2019-04-06T09:14:11.221Z,985.01
2019-04-06T09:15:11.264Z,985.06
2019-04-06T09:16:11.301Z,985.01
2019-04-06T09:17:11.340Z,985.04
2019-04-06T09:18:11.397Z,985.01
2019-04-06T09:19:11.423Z,985.01
2019-04-06T09:20:11.479Z,984.94
2019-04-06T09:21:11.613Z,984.96
2019-04-06T09:22:11.611Z,984.95
2019-04-06T09:23:11.591Z,984.94
2019-04-06T09:24:11.633Z,984.95
2019-04-06T09:25:11.675Z,984.89
2019-04-06T09:26:11.731Z,984.88
2019-04-06T09:27:11.758Z,984.88
2019-04-06T09:28:11.803Z,984.86
2019-04-06T09:29:22.355Z,984.85
2019-04-06T09:30:11.890Z,984.84
2019-04-06T09:31:11.927Z,984.81
2019-04-06T09:32:12.184Z,984.79
2019-04-06T09:33:12.030Z,984.80
2019-04-06T09:34:12.232Z,984.81
2019-04-06T09:35:12.101Z,984.75
2019-04-06T09:36:12.146Z,984.77
2019-04-06T09:37:12.369Z,984.74
2019-04-06T09:38:12.223Z,984.70
2019-04-06T09:39:12.265Z,984.70
2019-04-06T09:40:12.514Z,984.64
2019-04-06T09:41:12.348Z,984.68
2019-04-06T09:42:12.477Z,984.66
2019-04-06T09:43:12.432Z,984.65
2019-04-06T09:44:12.799Z,984.60
2019-04-06T09:45:12.552Z,984.60
2019-04-06T09:46:12.569Z,984.58
2019-04-06T09:47:12.602Z,984.62
2019-04-06T09:48:12.824Z,984.59
2019-04-06T09:49:12.696Z,984.59
2019-04-06T09:50:12.737Z,984.57
2019-04-06T09:51:12.807Z,984.61
2019-04-06T09:52:12.811Z,984.61
2019-04-06T09:53:13.037Z,984.61
2019-04-06T09:54:12.904Z,984.59
2019-04-06T09:55:13.044Z,984.58
2019-04-06T09:56:12.985Z,984.58
2019-04-06T09:57:13.023Z,984.51
2019-04-06T09:58:13.263Z,984.54
2019-04-06T09:59:13.112Z,984.52
2019-04-06T10:00:13.152Z,984.59
2019-04-06T10:01:13.213Z,984.52
2019-04-06T10:02:13.451Z,984.51
2019-04-06T10:03:13.279Z,984.52
2019-04-06T10:04:13.321Z,984.49
2019-04-06T10:05:13.362Z,984.49
2019-04-06T10:06:13.496Z,984.42
2019-04-06T10:07:13.487Z,984.43
2019-04-06T10:08:13.491Z,984.45
2019-04-06T10:09:13.538Z,984.45
2019-04-06T10:10:13.915Z,984.50
2019-04-06T10:11:13.623Z,984.48
2019-04-06T10:12:13.673Z,984.44
2019-04-06T10:13:13.705Z,984.42
2019-04-06T10:14:13.966Z,984.43
2019-04-06T10:15:13.797Z,984.45
2019-04-06T10:16:13.854Z,984.42
2019-04-06T10:17:13.875Z,984.43
2019-04-06T10:18:13.923Z,984.44
2019-04-06T10:19:13.960Z,984.43
2019-04-06T10:20:14.253Z,984.37
2019-04-06T10:21:14.046Z,984.34
2019-04-06T10:22:14.097Z,984.33
2019-04-06T10:23:14.139Z,984.37
2019-04-06T10:24:14.207Z,984.36
2019-04-06T10:25:14.281Z,984.40
2019-04-06T10:26:14.518Z,984.38
2019-04-06T10:27:14.306Z,984.38
2019-04-06T10:28:14.354Z,984.30
2019-04-06T10:29:14.388Z,984.29
2019-04-06T10:30:14.629Z,984.35
2019-04-06T10:31:14.837Z,984.29
2019-04-06T10:32:14.718Z,984.32
2019-04-06T10:33:14.559Z,984.31
2019-04-06T10:34:14.607Z,984.31
2019-04-06T10:35:14.645Z,984.34
2019-04-06T10:36:14.721Z,984.30
2019-04-06T10:37:14.734Z,984.32
2019-04-06T10:38:14.860Z,984.31
2019-04-06T10:39:14.855Z,984.29
2019-04-06T10:40:14.862Z,984.27
2019-04-06T10:41:14.907Z,984.28
2019-04-06T10:42:14.956Z,984.24
2019-04-06T10:43:14.997Z,984.26
2019-04-06T10:44:15.103Z,984.25
2019-04-06T10:45:15.380Z,984.26
2019-04-06T10:46:15.129Z,984.21
2019-04-06T10:47:15.173Z,984.21
2019-04-06T10:48:15.262Z,984.22
2019-04-06T10:49:15.251Z,984.26
2019-04-06T10:50:15.295Z,984.24
2019-04-06T10:51:15.336Z,984.27
2019-04-06T10:52:15.379Z,984.25
2019-04-06T10:53:15.831Z,984.22
2019-04-06T10:54:15.467Z,984.19
2019-04-06T10:55:15.511Z,984.21
2019-04-06T10:56:15.829Z,984.21
2019-04-06T10:57:15.613Z,984.18
2019-04-06T10:58:15.649Z,984.21
2019-04-06T10:59:15.686Z,984.19
2019-04-06T11:00:15.733Z,984.17
2019-04-06T11:01:16.119Z,984.15
2019-04-06T11:02:15.894Z,984.21
2019-04-06T11:03:15.878Z,984.23
2019-04-06T11:04:15.907Z,984.20
2019-04-06T11:05:15.947Z,984.21
2019-04-06T11:06:16.146Z,984.19
2019-04-06T11:07:16.033Z,984.19
2019-04-06T11:08:16.079Z,984.18
2019-04-06T11:09:16.122Z,984.15
2019-04-06T11:10:16.167Z,984.12
2019-04-06T11:11:19.812Z,984.10
2019-04-06T11:12:16.254Z,984.13
2019-04-06T11:13:16.299Z,984.11
2019-04-06T11:14:16.495Z,984.14
2019-04-06T11:15:16.390Z,984.09
2019-04-06T11:16:16.430Z,984.10
2019-04-06T11:17:16.487Z,984.08
2019-04-06T11:18:16.517Z,984.14
2019-04-06T11:19:16.557Z,984.07
2019-04-06T11:20:16.612Z,984.02
2019-04-06T11:21:16.680Z,984.08
2019-04-06T11:22:17.231Z,984.11
2019-04-06T11:23:16.734Z,984.04
2019-04-06T11:24:17.029Z,984.03
2019-04-06T11:25:16.830Z,984.01
2019-04-06T11:26:16.922Z,984.00
2019-04-06T11:27:16.919Z,983.98
2019-04-06T11:28:16.955Z,983.98
2019-04-06T11:29:17.005Z,983.94
2019-04-06T11:30:17.398Z,983.96
2019-04-06T11:31:17.087Z,984.02
2019-04-06T11:32:17.143Z,983.97
2019-04-06T11:33:17.302Z,983.96
2019-04-06T11:34:17.224Z,983.96
2019-04-06T11:35:17.265Z,983.97
2019-04-06T11:36:17.308Z,983.97
2019-04-06T11:37:17.361Z,983.90
2019-04-06T11:38:17.649Z,983.91
2019-04-06T11:39:17.494Z,983.91
2019-04-06T11:40:17.482Z,983.86
2019-04-06T11:41:17.767Z,983.87
2019-04-06T11:42:17.587Z,983.90
2019-04-06T11:43:17.771Z,983.91
2019-04-06T11:44:17.661Z,983.88
2019-04-06T11:45:17.756Z,983.85
2019-04-06T11:46:17.747Z,983.84
2019-04-06T11:47:17.793Z,983.85
2019-04-06T11:48:18.043Z,983.86
2019-04-06T11:49:17.997Z,983.88
2019-04-06T11:50:18.185Z,983.87
2019-04-06T11:51:17.977Z,983.84
2019-04-06T11:52:18.011Z,983.84
2019-04-06T11:53:18.055Z,983.84
2019-04-06T11:54:18.099Z,983.80
2019-04-06T11:55:18.201Z,983.81
2019-04-06T11:56:18.568Z,983.81
2019-04-06T11:57:18.356Z,983.85
2019-04-06T11:58:18.276Z,983.88
2019-04-06T11:59:18.410Z,983.84
2019-04-06T12:00:25.583Z,983.83
2019-04-06T12:01:18.407Z,983.84
2019-04-06T12:02:18.452Z,983.84
2019-04-06T12:03:18.504Z,983.84
2019-04-06T12:04:18.542Z,983.81
2019-04-06T12:05:18.598Z,983.77
2019-04-06T12:06:18.629Z,983.75
2019-04-06T12:07:18.674Z,983.80
2019-04-06T12:08:19.057Z,983.77
2019-04-06T12:09:18.766Z,983.73
2019-04-06T12:10:19.388Z,983.77
2019-04-06T12:11:18.857Z,983.73
2019-04-06T12:12:18.895Z,983.70
2019-04-06T12:13:19.212Z,983.71
2019-04-06T12:14:18.992Z,983.73
2019-04-06T12:15:19.288Z,983.69
2019-04-06T12:16:19.075Z,983.67
2019-04-06T12:17:19.122Z,983.69
2019-04-06T12:18:19.349Z,983.70
2019-04-06T12:19:19.206Z,983.63
2019-04-06T12:20:19.563Z,983.59
2019-04-06T12:21:19.569Z,983.62
2019-04-06T12:22:19.472Z,983.63
2019-04-06T12:23:19.397Z,983.63
2019-04-06T12:24:19.430Z,983.55
2019-04-06T12:25:19.481Z,983.62
2019-04-06T12:26:19.516Z,983.56
2019-04-06T12:27:19.560Z,983.57
2019-04-06T12:28:21.776Z,983.55
2019-04-06T12:29:19.652Z,983.61